sensor_id;sensor_type;location;lat;lon;timestamp;pressure;altitude;pressure_sealevel;temperature;humidity
69911;BME280;63555;49.920;17.868;2023-06-14T00:00:09;98582.63;;;8.32;71.87
69911;BME280;63555;49.920;17.868;2023-06-14T00:05:09;98574.34;;;8.25;72.58
69911;BME280;63555;49.920;17.868;2023-06-14T00:10:12;98575.91;;;8.15;72.44
69911;BME280;63555;49.920;17.868;2023-06-14T00:15:12;98580.34;;;8.02;72.41
69911;BME280;63555;49.920;17.868;2023-06-14T00:20:13;98579.06;;;7.82;73.29
69911;BME280;63555;49.920;17.868;2023-06-14T00:25:13;98584.06;;;7.73;73.36
69911;BME280;63555;49.920;17.868;2023-06-14T00:30:14;98577.44;;;7.67;73.03
69911;BME280;63555;49.920;17.868;2023-06-14T00:35:14;98576.47;;;7.55;73.85
69911;BME280;63555;49.920;17.868;2023-06-14T00:40:15;98575.28;;;7.47;73.64
69911;BME280;63555;49.920;17.868;2023-06-14T00:45:15;98578.41;;;7.39;73.56
69911;BME280;63555;49.920;17.868;2023-06-14T00:50:16;98572.63;;;7.34;73.29
69911;BME280;63555;49.920;17.868;2023-06-14T00:55:16;98574.63;;;7.30;73.38
69911;BME280;63555;49.920;17.868;2023-06-14T01:00:16;98578.59;;;7.23;74.07
69911;BME280;63555;49.920;17.868;2023-06-14T01:05:17;98577.41;;;7.15;74.17
69911;BME280;63555;49.920;17.868;2023-06-14T01:15:32;98577.16;;;7.05;74.35
69911;BME280;63555;49.920;17.868;2023-06-14T01:20:34;98572.28;;;6.99;74.36
69911;BME280;63555;49.920;17.868;2023-06-14T01:25:38;98568.47;;;6.90;73.92
69911;BME280;63555;49.920;17.868;2023-06-14T01:30:40;98576.25;;;6.78;74.13
69911;BME280;63555;49.920;17.868;2023-06-14T01:35:48;98577.22;;;6.62;74.80
69911;BME280;63555;49.920;17.868;2023-06-14T01:40:49;98571.63;;;6.54;75.30
69911;BME280;63555;49.920;17.868;2023-06-14T01:45:51;98580.59;;;6.50;74.82
69911;BME280;63555;49.920;17.868;2023-06-14T01:50:53;98580.13;;;6.44;75.02
69911;BME280;63555;49.920;17.868;2023-06-14T01:55:54;98583.22;;;6.36;75.11
69911;BME280;63555;49.920;17.868;2023-06-14T02:00:55;98592.69;;;6.38;75.76
69911;BME280;63555;49.920;17.868;2023-06-14T02:05:56;98593.78;;;6.49;75.50
69911;BME280;63555;49.920;17.868;2023-06-14T02:10:57;98591.25;;;6.61;76.12
69911;BME280;63555;49.920;17.868;2023-06-14T02:15:57;98581.75;;;6.87;76.26
69911;BME280;63555;49.920;17.868;2023-06-14T02:20:59;98586.53;;;6.95;75.42
69911;BME280;63555;49.920;17.868;2023-06-14T02:26:00;98593.13;;;7.15;76.36
69911;BME280;63555;49.920;17.868;2023-06-14T02:31:00;98590.09;;;7.48;75.92
69911;BME280;63555;49.920;17.868;2023-06-14T02:36:01;98597.06;;;7.74;75.34
69911;BME280;63555;49.920;17.868;2023-06-14T02:41:03;98592.19;;;7.95;74.88
69911;BME280;63555;49.920;17.868;2023-06-14T02:46:04;98587.28;;;8.16;75.29
69911;BME280;63555;49.920;17.868;2023-06-14T02:51:05;98580.78;;;8.34;74.66
69911;BME280;63555;49.920;17.868;2023-06-14T02:56:06;98592.41;;;8.55;75.31
69911;BME280;63555;49.920;17.868;2023-06-14T03:01:06;98588.94;;;8.80;74.50
69911;BME280;63555;49.920;17.868;2023-06-14T03:06:07;98583.31;;;8.98;74.53
69911;BME280;63555;49.920;17.868;2023-06-14T03:11:08;98585.88;;;9.10;74.98
69911;BME280;63555;49.920;17.868;2023-06-14T03:16:11;98589.53;;;9.20;74.85
69911;BME280;63555;49.920;17.868;2023-06-14T03:21:11;98587.06;;;9.30;74.89
69911;BME280;63555;49.920;17.868;2023-06-14T03:26:12;98589.75;;;9.41;74.84
69911;BME280;63555;49.920;17.868;2023-06-14T03:31:15;98584.94;;;9.59;75.03
69911;BME280;63555;49.920;17.868;2023-06-14T03:36:16;98593.63;;;9.83;74.78
69911;BME280;63555;49.920;17.868;2023-06-14T03:41:17;98585.91;;;10.04;74.67
69911;BME280;63555;49.920;17.868;2023-06-14T03:46:18;98581.88;;;10.23;74.47
69911;BME280;63555;49.920;17.868;2023-06-14T03:51:18;98598.72;;;10.44;74.42
69911;BME280;63555;49.920;17.868;2023-06-14T03:56:18;98597.41;;;10.61;74.03
69911;BME280;63555;49.920;17.868;2023-06-14T04:01:19;98597.38;;;10.72;73.84
69911;BME280;63555;49.920;17.868;2023-06-14T04:06:20;98604.31;;;10.84;73.86
69911;BME280;63555;49.920;17.868;2023-06-14T04:11:20;98615.47;;;10.99;73.82
69911;BME280;63555;49.920;17.868;2023-06-14T04:16:20;98598.63;;;11.22;73.80
69911;BME280;63555;49.920;17.868;2023-06-14T04:21:21;98596.66;;;11.46;73.35
69911;BME280;63555;49.920;17.868;2023-06-14T04:26:23;98611.78;;;11.76;72.97
69911;BME280;63555;49.920;17.868;2023-06-14T04:31:23;98610.03;;;11.98;72.68
69911;BME280;63555;49.920;17.868;2023-06-14T04:36:25;98598.38;;;12.21;72.11
69911;BME280;63555;49.920;17.868;2023-06-14T04:41:28;98605.44;;;12.41;71.92
69911;BME280;63555;49.920;17.868;2023-06-14T04:46:28;98608.84;;;12.53;71.40
69911;BME280;63555;49.920;17.868;2023-06-14T04:51:30;98605.66;;;12.59;71.70
69911;BME280;63555;49.920;17.868;2023-06-14T04:56:31;98606.63;;;12.58;71.80
69911;BME280;63555;49.920;17.868;2023-06-14T05:01:32;98609.81;;;12.52;71.97
69911;BME280;63555;49.920;17.868;2023-06-14T05:06:33;98612.63;;;12.60;72.23
69911;BME280;63555;49.920;17.868;2023-06-14T05:11:33;98622.47;;;12.79;71.92
69911;BME280;63555;49.920;17.868;2023-06-14T05:16:33;98632.59;;;12.74;71.52
69911;BME280;63555;49.920;17.868;2023-06-14T05:21:34;98636.63;;;12.68;71.84
69911;BME280;63555;49.920;17.868;2023-06-14T05:26:35;98637.53;;;12.58;72.18
69911;BME280;63555;49.920;17.868;2023-06-14T05:31:35;98638.13;;;12.61;72.02
69911;BME280;63555;49.920;17.868;2023-06-14T05:36:35;98646.06;;;12.61;72.23
69911;BME280;63555;49.920;17.868;2023-06-14T05:41:37;98645.66;;;12.66;72.32
69911;BME280;63555;49.920;17.868;2023-06-14T05:46:37;98640.97;;;12.79;72.13
69911;BME280;63555;49.920;17.868;2023-06-14T05:51:40;98652.84;;;12.85;71.82
69911;BME280;63555;49.920;17.868;2023-06-14T05:56:40;98653.09;;;12.82;72.07
69911;BME280;63555;49.920;17.868;2023-06-14T06:01:40;98651.56;;;12.79;72.45
69911;BME280;63555;49.920;17.868;2023-06-14T06:06:41;98657.59;;;12.91;72.35
69911;BME280;63555;49.920;17.868;2023-06-14T06:11:41;98664.81;;;13.10;72.31
69911;BME280;63555;49.920;17.868;2023-06-14T06:16:42;98659.91;;;13.35;71.46
69911;BME280;63555;49.920;17.868;2023-06-14T06:21:42;98662.28;;;13.48;71.10
69911;BME280;63555;49.920;17.868;2023-06-14T06:26:42;98671.09;;;13.58;71.24
69911;BME280;63555;49.920;17.868;2023-06-14T06:31:43;98687.84;;;13.78;70.52
69911;BME280;63555;49.920;17.868;2023-06-14T06:36:43;98691.94;;;13.92;70.22
69911;BME280;63555;49.920;17.868;2023-06-14T06:41:43;98693.44;;;13.85;70.44
69911;BME280;63555;49.920;17.868;2023-06-14T06:46:44;98691.78;;;13.84;71.03
69911;BME280;63555;49.920;17.868;2023-06-14T06:51:59;98691.38;;;14.27;71.00
69911;BME280;63555;49.920;17.868;2023-06-14T06:57:00;98691.22;;;14.77;69.55
69911;BME280;63555;49.920;17.868;2023-06-14T07:02:05;98697.44;;;15.59;68.98
69911;BME280;63555;49.920;17.868;2023-06-14T07:07:05;98700.28;;;16.65;66.08
69911;BME280;63555;49.920;17.868;2023-06-14T07:12:08;98695.75;;;17.43;64.77
69911;BME280;63555;49.920;17.868;2023-06-14T07:17:09;98696.47;;;18.28;63.13
69911;BME280;63555;49.920;17.868;2023-06-14T07:22:09;98701.16;;;18.42;61.58
69911;BME280;63555;49.920;17.868;2023-06-14T07:27:10;98704.78;;;18.17;62.09
69911;BME280;63555;49.920;17.868;2023-06-14T07:32:11;98711.00;;;18.74;61.17
69911;BME280;63555;49.920;17.868;2023-06-14T07:37:11;98708.28;;;19.15;59.25
69911;BME280;63555;49.920;17.868;2023-06-14T07:42:11;98707.97;;;18.93;59.21
69911;BME280;63555;49.920;17.868;2023-06-14T07:47:12;98708.50;;;18.48;59.29
69911;BME280;63555;49.920;17.868;2023-06-14T07:52:12;98699.94;;;19.09;59.34
69911;BME280;63555;49.920;17.868;2023-06-14T07:57:13;98699.00;;;21.10;56.42
69911;BME280;63555;49.920;17.868;2023-06-14T08:02:14;98694.59;;;23.45;50.23
69911;BME280;63555;49.920;17.868;2023-06-14T08:07:14;98694.19;;;23.96;48.60
69911;BME280;63555;49.920;17.868;2023-06-14T08:12:15;98691.53;;;23.20;49.26
69911;BME280;63555;49.920;17.868;2023-06-14T08:17:15;98697.94;;;22.63;49.90
69911;BME280;63555;49.920;17.868;2023-06-14T08:22:15;98695.34;;;23.39;49.40
69911;BME280;63555;49.920;17.868;2023-06-14T08:27:16;98698.97;;;24.00;47.44
69911;BME280;63555;49.920;17.868;2023-06-14T08:32:17;98701.25;;;23.21;48.13
69911;BME280;63555;49.920;17.868;2023-06-14T08:37:17;98705.28;;;22.76;49.12
69911;BME280;63555;49.920;17.868;2023-06-14T08:42:18;98703.16;;;23.27;48.23
69911;BME280;63555;49.920;17.868;2023-06-14T08:47:23;98696.28;;;24.07;46.58
69911;BME280;63555;49.920;17.868;2023-06-14T08:52:27;98697.22;;;24.54;45.43
69911;BME280;63555;49.920;17.868;2023-06-14T08:57:33;98694.59;;;23.93;45.41
69911;BME280;63555;49.920;17.868;2023-06-14T09:02:38;98703.88;;;23.08;47.38
69911;BME280;63555;49.920;17.868;2023-06-14T09:07:44;98696.50;;;22.88;47.79
69911;BME280;63555;49.920;17.868;2023-06-14T09:12:44;98708.44;;;22.58;48.01
69911;BME280;63555;49.920;17.868;2023-06-14T09:17:45;98702.53;;;22.69;48.15
69911;BME280;63555;49.920;17.868;2023-06-14T09:22:45;98696.28;;;24.07;46.27
69911;BME280;63555;49.920;17.868;2023-06-14T09:27:46;98705.56;;;26.21;42.56
69911;BME280;63555;49.920;17.868;2023-06-14T09:32:47;98699.78;;;26.74;41.23
69911;BME280;63555;49.920;17.868;2023-06-14T09:37:47;98704.69;;;26.83;41.41
69911;BME280;63555;49.920;17.868;2023-06-14T09:42:48;98699.06;;;26.28;41.79
69911;BME280;63555;49.920;17.868;2023-06-14T09:47:49;98705.75;;;25.17;43.07
69911;BME280;63555;49.920;17.868;2023-06-14T09:52:52;98700.69;;;26.05;42.67
69911;BME280;63555;49.920;17.868;2023-06-14T09:57:53;98696.25;;;26.48;41.45
69911;BME280;63555;49.920;17.868;2023-06-14T10:03:00;98711.75;;;24.79;43.55
69911;BME280;63555;49.920;17.868;2023-06-14T10:08:16;98712.84;;;22.66;46.66
69911;BME280;63555;49.920;17.868;2023-06-14T10:13:18;98709.94;;;21.38;49.02
69911;BME280;63555;49.920;17.868;2023-06-14T10:18:21;98707.03;;;21.10;49.34
69911;BME280;63555;49.920;17.868;2023-06-14T10:23:23;98703.50;;;20.94;50.00
69911;BME280;63555;49.920;17.868;2023-06-14T10:28:24;98700.03;;;21.23;49.37
69911;BME280;63555;49.920;17.868;2023-06-14T10:33:25;98703.22;;;21.78;48.48
69911;BME280;63555;49.920;17.868;2023-06-14T10:38:30;98697.50;;;22.38;47.16
69911;BME280;63555;49.920;17.868;2023-06-14T10:43:32;98689.41;;;23.09;46.41
69911;BME280;63555;49.920;17.868;2023-06-14T10:48:33;98694.59;;;23.45;45.04
69911;BME280;63555;49.920;17.868;2023-06-14T10:53:40;98685.09;;;22.16;47.74
69911;BME280;63555;49.920;17.868;2023-06-14T10:58:41;98677.69;;;22.67;48.31
69911;BME280;63555;49.920;17.868;2023-06-14T11:03:50;98681.03;;;26.54;42.73
69911;BME280;63555;49.920;17.868;2023-06-14T11:14:19;98679.56;;;27.26;39.36
69911;BME280;63555;49.920;17.868;2023-06-14T11:19:21;98674.28;;;26.00;41.13
69911;BME280;63555;49.920;17.868;2023-06-14T11:24:21;98673.63;;;26.43;41.08
69911;BME280;63555;49.920;17.868;2023-06-14T11:29:22;98665.34;;;27.67;38.84
69911;BME280;63555;49.920;17.868;2023-06-14T11:34:22;98671.13;;;27.52;38.71
69911;BME280;63555;49.920;17.868;2023-06-14T11:39:26;98656.09;;;27.20;38.59
69911;BME280;63555;49.920;17.868;2023-06-14T11:44:27;98664.81;;;27.22;37.86
69911;BME280;63555;49.920;17.868;2023-06-14T11:49:28;98659.31;;;27.28;37.48
69911;BME280;63555;49.920;17.868;2023-06-14T11:54:28;98660.69;;;28.46;35.71
69911;BME280;63555;49.920;17.868;2023-06-14T11:59:29;98651.22;;;30.84;32.42
69911;BME280;63555;49.920;17.868;2023-06-14T12:04:31;98651.47;;;31.38;31.30
69911;BME280;63555;49.920;17.868;2023-06-14T12:09:31;98646.38;;;29.04;33.86
69911;BME280;63555;49.920;17.868;2023-06-14T12:14:32;98626.75;;;26.99;37.02
69911;BME280;63555;49.920;17.868;2023-06-14T12:19:33;98623.44;;;25.84;39.06
69911;BME280;63555;49.920;17.868;2023-06-14T12:24:45;98628.75;;;25.97;39.62
69911;BME280;63555;49.920;17.868;2023-06-14T12:29:45;98628.59;;;29.36;34.61
69911;BME280;63555;49.920;17.868;2023-06-14T12:34:46;98619.56;;;32.73;31.37
69911;BME280;63555;49.920;17.868;2023-06-14T12:39:46;98615.75;;;35.31;28.01
69911;BME280;63555;49.920;17.868;2023-06-14T12:44:46;98609.69;;;37.30;26.10
69911;BME280;63555;49.920;17.868;2023-06-14T12:49:47;98616.41;;;36.22;26.13
69911;BME280;63555;49.920;17.868;2023-06-14T12:54:47;98620.28;;;34.66;27.79
69911;BME280;63555;49.920;17.868;2023-06-14T12:59:47;98614.59;;;32.97;29.61
69911;BME280;63555;49.920;17.868;2023-06-14T13:04:48;98610.31;;;31.61;30.14
69911;BME280;63555;49.920;17.868;2023-06-14T13:09:48;98613.94;;;29.37;32.86
69911;BME280;63555;49.920;17.868;2023-06-14T13:14:48;98607.94;;;27.40;35.63
69911;BME280;63555;49.920;17.868;2023-06-14T13:19:49;98615.84;;;25.67;38.50
69911;BME280;63555;49.920;17.868;2023-06-14T13:24:50;98611.53;;;24.16;41.43
69911;BME280;63555;49.920;17.868;2023-06-14T13:29:50;98597.00;;;23.36;42.82
69911;BME280;63555;49.920;17.868;2023-06-14T13:34:50;98598.19;;;23.20;42.99
69911;BME280;63555;49.920;17.868;2023-06-14T13:39:51;98604.81;;;23.59;42.87
69911;BME280;63555;49.920;17.868;2023-06-14T13:44:51;98592.44;;;24.11;42.55
69911;BME280;63555;49.920;17.868;2023-06-14T13:49:52;98586.56;;;26.02;39.34
69911;BME280;63555;49.920;17.868;2023-06-14T13:54:53;98575.84;;;27.07;37.68
69911;BME280;63555;49.920;17.868;2023-06-14T13:59:53;98582.31;;;29.31;34.23
69911;BME280;63555;49.920;17.868;2023-06-14T14:04:56;98598.56;;;29.03;35.01
69911;BME280;63555;49.920;17.868;2023-06-14T14:09:57;98593.03;;;27.31;38.09
69911;BME280;63555;49.920;17.868;2023-06-14T14:14:57;98600.69;;;28.12;36.98
69911;BME280;63555;49.920;17.868;2023-06-14T14:19:58;98596.81;;;29.37;35.06
69911;BME280;63555;49.920;17.868;2023-06-14T14:24:58;98604.81;;;28.80;35.87
69911;BME280;63555;49.920;17.868;2023-06-14T14:29:58;98592.28;;;29.14;34.52
69911;BME280;63555;49.920;17.868;2023-06-14T14:34:59;98599.41;;;29.55;34.07
69911;BME280;63555;49.920;17.868;2023-06-14T14:39:59;98595.47;;;29.63;33.70
69911;BME280;63555;49.920;17.868;2023-06-14T14:44:59;98595.16;;;30.04;32.73
69911;BME280;63555;49.920;17.868;2023-06-14T14:50:00;98592.38;;;30.33;32.25
69911;BME280;63555;49.920;17.868;2023-06-14T14:55:01;98590.59;;;30.55;31.69
69911;BME280;63555;49.920;17.868;2023-06-14T15:00:05;98590.59;;;30.55;31.73
69911;BME280;63555;49.920;17.868;2023-06-14T15:05:06;98582.34;;;30.50;32.09
69911;BME280;63555;49.920;17.868;2023-06-14T15:10:07;98576.16;;;30.71;31.46
69911;BME280;63555;49.920;17.868;2023-06-14T15:15:09;98585.50;;;30.59;31.07
69911;BME280;63555;49.920;17.868;2023-06-14T15:20:10;98583.13;;;30.84;30.88
69911;BME280;63555;49.920;17.868;2023-06-14T15:25:12;98587.94;;;29.82;32.45
69911;BME280;63555;49.920;17.868;2023-06-14T15:30:13;98588.59;;;29.20;32.93
69911;BME280;63555;49.920;17.868;2023-06-14T15:35:16;98584.41;;;28.89;33.72
69911;BME280;63555;49.920;17.868;2023-06-14T15:40:16;98576.53;;;29.28;33.00
69911;BME280;63555;49.920;17.868;2023-06-14T15:45:17;98583.47;;;29.75;32.48
69911;BME280;63555;49.920;17.868;2023-06-14T15:50:17;98577.59;;;29.67;31.73
69911;BME280;63555;49.920;17.868;2023-06-14T15:55:18;98569.59;;;29.60;32.22
69911;BME280;63555;49.920;17.868;2023-06-14T16:00:19;98577.41;;;28.81;32.66
69911;BME280;63555;49.920;17.868;2023-06-14T16:05:20;98573.44;;;27.47;34.70
69911;BME280;63555;49.920;17.868;2023-06-14T16:10:21;98568.41;;;27.03;34.97
69911;BME280;63555;49.920;17.868;2023-06-14T16:15:21;98582.63;;;26.73;35.71
69911;BME280;63555;49.920;17.868;2023-06-14T16:20:21;98583.22;;;26.00;36.46
69911;BME280;63555;49.920;17.868;2023-06-14T16:25:22;98603.56;;;25.14;38.50
69911;BME280;63555;49.920;17.868;2023-06-14T16:30:22;98592.50;;;24.37;39.98
69911;BME280;63555;49.920;17.868;2023-06-14T16:35:23;98601.28;;;23.65;40.98
69911;BME280;63555;49.920;17.868;2023-06-14T16:40:23;98597.44;;;22.92;42.28
69911;BME280;63555;49.920;17.868;2023-06-14T16:45:23;98603.34;;;22.25;43.59
69911;BME280;63555;49.920;17.868;2023-06-14T16:50:24;98611.38;;;21.46;45.13
69911;BME280;63555;49.920;17.868;2023-06-14T16:55:24;98619.81;;;20.70;47.05
69911;BME280;63555;49.920;17.868;2023-06-14T17:00:25;98622.47;;;19.94;48.70
69911;BME280;63555;49.920;17.868;2023-06-14T17:05:25;98622.34;;;19.26;50.36
69911;BME280;63555;49.920;17.868;2023-06-14T17:10:26;98628.19;;;18.58;53.10
69911;BME280;63555;49.920;17.868;2023-06-14T17:15:26;98639.41;;;18.04;54.79
69911;BME280;63555;49.920;17.868;2023-06-14T17:20:27;98642.88;;;17.72;56.23
69911;BME280;63555;49.920;17.868;2023-06-14T17:25:27;98645.78;;;17.45;57.38
69911;BME280;63555;49.920;17.868;2023-06-14T17:30:29;98646.97;;;17.16;58.52
69911;BME280;63555;49.920;17.868;2023-06-14T17:35:30;98652.66;;;16.87;59.04
69911;BME280;63555;49.920;17.868;2023-06-14T17:40:30;98656.72;;;16.66;59.79
69911;BME280;63555;49.920;17.868;2023-06-14T17:45:31;98659.38;;;16.48;60.42
69911;BME280;63555;49.920;17.868;2023-06-14T17:50:31;98664.41;;;16.33;60.62
69911;BME280;63555;49.920;17.868;2023-06-14T17:55:34;98674.47;;;16.21;61.27
69911;BME280;63555;49.920;17.868;2023-06-14T18:00:34;98679.34;;;16.08;61.42
69911;BME280;63555;49.920;17.868;2023-06-14T18:05:35;98682.53;;;15.94;61.78
69911;BME280;63555;49.920;17.868;2023-06-14T18:10:37;98686.03;;;15.77;62.25
69911;BME280;63555;49.920;17.868;2023-06-14T18:15:38;98688.22;;;15.64;62.72
69911;BME280;63555;49.920;17.868;2023-06-14T18:20:38;98685.53;;;15.54;63.23
69911;BME280;63555;49.920;17.868;2023-06-14T18:25:38;98699.28;;;15.49;63.58
69911;BME280;63555;49.920;17.868;2023-06-14T18:30:39;98708.97;;;15.41;64.34
69911;BME280;63555;49.920;17.868;2023-06-14T18:35:39;98700.50;;;15.27;64.94
69911;BME280;63555;49.920;17.868;2023-06-14T18:40:40;98708.69;;;15.16;65.44
69911;BME280;63555;49.920;17.868;2023-06-14T18:45:40;98708.16;;;15.03;66.47
69911;BME280;63555;49.920;17.868;2023-06-14T18:50:40;98708.63;;;14.89;66.84
69911;BME280;63555;49.920;17.868;2023-06-14T18:55:41;98697.50;;;14.76;66.90
69911;BME280;63555;49.920;17.868;2023-06-14T19:00:45;98704.06;;;14.62;67.22
69911;BME280;63555;49.920;17.868;2023-06-14T19:05:49;98718.19;;;14.53;67.30
69911;BME280;63555;49.920;17.868;2023-06-14T19:10:51;98727.00;;;14.44;67.52
69911;BME280;63555;49.920;17.868;2023-06-14T19:15:51;98730.88;;;14.30;68.15
69911;BME280;63555;49.920;17.868;2023-06-14T19:20:53;98736.47;;;14.17;68.21
69911;BME280;63555;49.920;17.868;2023-06-14T19:25:53;98742.34;;;14.11;68.16
69911;BME280;63555;49.920;17.868;2023-06-14T19:30:54;98741.50;;;14.01;68.49
69911;BME280;63555;49.920;17.868;2023-06-14T19:35:55;98747.34;;;13.95;68.32
69911;BME280;63555;49.920;17.868;2023-06-14T19:40:55;98751.25;;;13.91;68.56
69911;BME280;63555;49.920;17.868;2023-06-14T19:45:55;98749.25;;;13.83;68.70
69911;BME280;63555;49.920;17.868;2023-06-14T19:50:56;98750.91;;;13.75;68.81
69911;BME280;63555;49.920;17.868;2023-06-14T19:55:56;98750.75;;;13.66;69.31
69911;BME280;63555;49.920;17.868;2023-06-14T20:00:56;98757.00;;;13.56;69.45
69911;BME280;63555;49.920;17.868;2023-06-14T20:05:57;98764.22;;;13.44;69.82
69911;BME280;63555;49.920;17.868;2023-06-14T20:10:57;98768.75;;;13.32;70.08
69911;BME280;63555;49.920;17.868;2023-06-14T20:15:58;98764.41;;;13.22;70.54
69911;BME280;63555;49.920;17.868;2023-06-14T20:20:58;98770.72;;;13.10;70.46
69911;BME280;63555;49.920;17.868;2023-06-14T20:25:58;98764.88;;;12.95;70.85
69911;BME280;63555;49.920;17.868;2023-06-14T20:30:59;98764.66;;;12.77;70.86
69911;BME280;63555;49.920;17.868;2023-06-14T20:35:59;98763.16;;;12.63;71.06
69911;BME280;63555;49.920;17.868;2023-06-14T20:40:59;98762.66;;;12.49;71.41
69911;BME280;63555;49.920;17.868;2023-06-14T20:46:00;98760.44;;;12.33;71.84
69911;BME280;63555;49.920;17.868;2023-06-14T20:51:00;98757.97;;;12.20;72.19
69911;BME280;63555;49.920;17.868;2023-06-14T20:56:01;98759.78;;;12.08;72.34
69911;BME280;63555;49.920;17.868;2023-06-14T21:01:01;98754.66;;;11.96;72.58
69911;BME280;63555;49.920;17.868;2023-06-14T21:06:01;98760.94;;;11.84;73.17
69911;BME280;63555;49.920;17.868;2023-06-14T21:11:04;98757.91;;;11.77;73.43
69911;BME280;63555;49.920;17.868;2023-06-14T21:16:05;98753.72;;;11.74;73.07
69911;BME280;63555;49.920;17.868;2023-06-14T21:21:05;98764.66;;;11.70;73.71
69911;BME280;63555;49.920;17.868;2023-06-14T21:26:05;98767.66;;;11.65;73.29
69911;BME280;63555;49.920;17.868;2023-06-14T21:31:07;98765.28;;;11.62;73.69
69911;BME280;63555;49.920;17.868;2023-06-14T21:36:08;98759.75;;;11.65;73.98
69911;BME280;63555;49.920;17.868;2023-06-14T21:41:08;98766.81;;;11.76;74.45
69911;BME280;63555;49.920;17.868;2023-06-14T21:46:09;98764.03;;;11.89;74.59
69911;BME280;63555;49.920;17.868;2023-06-14T21:51:10;98765.56;;;12.02;74.32
69911;BME280;63555;49.920;17.868;2023-06-14T21:56:10;98766.41;;;12.14;74.07
69911;BME280;63555;49.920;17.868;2023-06-14T22:01:11;98763.72;;;12.25;74.26
69911;BME280;63555;49.920;17.868;2023-06-14T22:06:11;98767.88;;;12.39;74.49
69911;BME280;63555;49.920;17.868;2023-06-14T22:11:12;98766.72;;;12.53;73.95
69911;BME280;63555;49.920;17.868;2023-06-14T22:16:13;98765.63;;;12.55;73.93
69911;BME280;63555;49.920;17.868;2023-06-14T22:21:13;98766.25;;;12.48;73.57
69911;BME280;63555;49.920;17.868;2023-06-14T22:26:15;98757.09;;;12.31;73.62
69911;BME280;63555;49.920;17.868;2023-06-14T22:31:16;98766.28;;;12.16;74.14
69911;BME280;63555;49.920;17.868;2023-06-14T22:36:17;98755.00;;;12.02;73.98
69911;BME280;63555;49.920;17.868;2023-06-14T22:41:18;98754.44;;;11.88;74.45
69911;BME280;63555;49.920;17.868;2023-06-14T22:46:18;98752.41;;;11.80;75.33
69911;BME280;63555;49.920;17.868;2023-06-14T22:51:24;98762.50;;;11.86;75.28
69911;BME280;63555;49.920;17.868;2023-06-14T22:56:25;98768.38;;;11.90;75.58
69911;BME280;63555;49.920;17.868;2023-06-14T23:01:25;98760.91;;;11.95;75.42
69911;BME280;63555;49.920;17.868;2023-06-14T23:06:27;98749.47;;;12.05;75.57
69911;BME280;63555;49.920;17.868;2023-06-14T23:11:28;98750.16;;;12.07;75.21
69911;BME280;63555;49.920;17.868;2023-06-14T23:16:29;98748.19;;;11.89;74.73
69911;BME280;63555;49.920;17.868;2023-06-14T23:21:29;98756.97;;;11.67;75.20
69911;BME280;63555;49.920;17.868;2023-06-14T23:26:30;98749.22;;;11.43;75.05
69911;BME280;63555;49.920;17.868;2023-06-14T23:31:30;98744.16;;;11.17;75.78
69911;BME280;63555;49.920;17.868;2023-06-14T23:36:33;98749.06;;;11.00;75.91
69911;BME280;63555;49.920;17.868;2023-06-14T23:41:34;98746.91;;;10.82;76.57
69911;BME280;63555;49.920;17.868;2023-06-14T23:46:35;98741.59;;;10.71;76.33
69911;BME280;63555;49.920;17.868;2023-06-14T23:51:35;98743.50;;;10.58;76.85
69911;BME280;63555;49.920;17.868;2023-06-14T23:56:38;98748.63;;;10.48;76.59
